createdAt,value
2022-11-25T00:01:53.561Z,97525.24
2022-11-25T00:04:23.567Z,97528.64
2022-11-25T00:06:56.249Z,97531.52
2022-11-25T00:09:36.289Z,97535.61
2022-11-25T00:12:07.029Z,97535.44
2022-11-25T00:14:38.227Z,97538.65
2022-11-25T00:17:11.491Z,97540.68
2022-11-25T00:19:41.683Z,97542.88
2022-11-25T00:22:14.242Z,97539.63
2022-11-25T00:24:47.260Z,97542.17
2022-11-25T00:27:17.399Z,97542.69
2022-11-25T00:29:47.489Z,97550.33
2022-11-25T00:32:17.661Z,97549.31
2022-11-25T00:34:50.829Z,97552.71
2022-11-25T00:37:20.976Z,97551.55
2022-11-25T00:39:52.301Z,97551.58
2022-11-25T00:42:40.379Z,97550.40
2022-11-25T00:45:13.571Z,97551.60
2022-11-25T00:47:43.840Z,97550.41
2022-11-25T00:50:14.367Z,97551.77
2022-11-25T00:52:44.614Z,97555.19
2022-11-25T00:55:16.087Z,97556.54
2022-11-25T00:57:49.309Z,97556.54
2022-11-25T01:00:20.480Z,97555.89
2022-11-25T01:02:50.877Z,97556.91
2022-11-25T01:05:21.219Z,97555.39
2022-11-25T01:07:51.289Z,97554.38
2022-11-25T01:10:21.659Z,97556.95
2022-11-25T01:12:52.067Z,97558.52
2022-11-25T01:15:26.068Z,97559.21
2022-11-25T01:17:56.329Z,97553.95
2022-11-25T01:20:26.711Z,97554.48
2022-11-25T01:22:58.799Z,97555.16
2022-11-25T01:25:33.027Z,97553.14
2022-11-25T01:28:03.047Z,97547.34
2022-11-25T01:30:39.782Z,97547.15
2022-11-25T01:33:11.674Z,97543.04
2022-11-25T01:35:44.209Z,97545.76
2022-11-25T01:38:14.399Z,97545.08
2022-11-25T01:40:45.108Z,97548.48
2022-11-25T01:43:16.818Z,97550.88
2022-11-25T01:45:47.449Z,97549.02
2022-11-25T01:48:23.062Z,97554.48
2022-11-25T01:50:54.387Z,97560.95
2022-11-25T01:53:25.049Z,97555.02
2022-11-25T01:55:59.808Z,97557.08
2022-11-25T01:58:34.736Z,97556.25
2022-11-25T02:01:05.136Z,97555.57
2022-11-25T02:03:45.138Z,97555.25
2022-11-25T02:06:25.608Z,97555.96
2022-11-25T02:09:01.991Z,97560.21
2022-11-25T02:11:33.879Z,97559.21
2022-11-25T02:14:05.158Z,97557.71
2022-11-25T02:16:35.382Z,97556.02
2022-11-25T02:19:09.179Z,97558.56
2022-11-25T02:21:47.469Z,97557.58
2022-11-25T02:24:24.606Z,97554.21
2022-11-25T02:26:54.766Z,97550.78
2022-11-25T02:29:25.108Z,97550.42
2022-11-25T02:31:55.748Z,97551.61
2022-11-25T02:34:27.677Z,97549.59
2022-11-25T02:37:00.478Z,97551.30
2022-11-25T02:39:30.869Z,97551.67
2022-11-25T02:42:03.197Z,97551.18
2022-11-25T02:44:34.436Z,97549.52
2022-11-25T02:47:07.128Z,97547.46
2022-11-25T02:49:39.959Z,97547.14
2022-11-25T02:52:10.386Z,97547.33
2022-11-25T02:54:43.710Z,97549.03
2022-11-25T02:57:13.944Z,97551.92
2022-11-25T02:59:45.128Z,97549.89
2022-11-25T03:02:19.369Z,97551.42
2022-11-25T03:04:49.857Z,97548.55
2022-11-25T03:07:22.706Z,97548.71
2022-11-25T03:09:53.037Z,97549.05
2022-11-25T03:12:23.668Z,97549.72
2022-11-25T03:14:56.820Z,97551.56
2022-11-25T03:17:27.096Z,97551.37
2022-11-25T03:19:57.561Z,97553.21
2022-11-25T03:22:28.299Z,97552.84
2022-11-25T03:24:58.588Z,97557.10
2022-11-25T03:27:30.412Z,97555.23
2022-11-25T03:30:03.171Z,97562.39
2022-11-25T03:32:33.337Z,97564.45
2022-11-25T03:35:05.890Z,97567.69
2022-11-25T03:37:39.648Z,97568.00
2022-11-25T03:40:13.448Z,97568.84
2022-11-25T03:42:43.578Z,97569.20
2022-11-25T03:45:15.671Z,97570.26
2022-11-25T03:47:46.104Z,97571.47
2022-11-25T03:50:16.870Z,97571.30
2022-11-25T03:52:48.059Z,97571.33
2022-11-25T03:55:18.621Z,97578.31
2022-11-25T03:57:49.422Z,97583.10
2022-11-25T04:00:23.628Z,97580.77
2022-11-25T04:02:56.309Z,97583.88
2022-11-25T04:05:26.490Z,97588.48
2022-11-25T04:07:58.180Z,97585.95
2022-11-25T04:10:30.989Z,97587.50
2022-11-25T04:13:07.419Z,97589.05
2022-11-25T04:15:49.739Z,97589.75
2022-11-25T04:18:24.257Z,97590.79
2022-11-25T04:21:04.359Z,97590.63
2022-11-25T04:23:37.568Z,97591.85
2022-11-25T04:26:09.459Z,97593.93
2022-11-25T04:28:47.187Z,97593.08
2022-11-25T04:31:19.902Z,97594.63
2022-11-25T04:33:52.735Z,97594.47
2022-11-25T04:36:24.668Z,97596.69
2022-11-25T04:38:55.009Z,97594.66
2022-11-25T04:41:26.318Z,97595.84
2022-11-25T04:43:56.897Z,97600.11
2022-11-25T04:46:33.748Z,97603.35
2022-11-25T04:49:03.959Z,97604.71
2022-11-25T04:51:37.157Z,97610.86
2022-11-25T04:54:07.769Z,97607.63
2022-11-25T04:56:38.307Z,97611.54
2022-11-25T04:59:27.738Z,97616.46
2022-11-25T05:01:57.817Z,97621.77
2022-11-25T05:04:43.050Z,97624.98
2022-11-25T05:07:14.672Z,97627.38
2022-11-25T05:09:46.247Z,97634.86
2022-11-25T05:12:23.229Z,97630.95
2022-11-25T05:14:53.609Z,97636.20
2022-11-25T05:17:26.993Z,97638.27
2022-11-25T05:19:59.432Z,97634.52
2022-11-25T05:22:31.609Z,97639.10
2022-11-25T05:25:01.847Z,97637.75
2022-11-25T05:27:32.310Z,97642.02
2022-11-25T05:30:13.259Z,97638.27
2022-11-25T05:32:44.875Z,97642.37
2022-11-25T05:35:14.910Z,97644.23
2022-11-25T05:37:50.359Z,97643.73
2022-11-25T05:40:20.779Z,97645.77
2022-11-25T05:43:02.842Z,97646.45
2022-11-25T05:45:35.629Z,97651.72
2022-11-25T05:48:10.599Z,97657.15
2022-11-25T05:50:40.799Z,97660.73
2022-11-25T05:53:23.229Z,97666.69
2022-11-25T05:55:57.797Z,97668.57
2022-11-25T05:58:46.939Z,97672.48
2022-11-25T06:01:18.510Z,97670.74
2022-11-25T06:03:49.062Z,97675.50
2022-11-25T06:06:19.857Z,97674.80
2022-11-25T06:08:50.390Z,97676.67
2022-11-25T06:11:20.442Z,97681.80
2022-11-25T06:13:50.482Z,97682.46
2022-11-25T06:16:22.841Z,97681.27
2022-11-25T06:18:57.205Z,97682.13
2022-11-25T06:21:30.499Z,97683.15
2022-11-25T06:24:00.688Z,97682.32
2022-11-25T06:26:31.738Z,97683.17
2022-11-25T06:29:04.570Z,97684.03
2022-11-25T06:31:37.360Z,97683.20
2022-11-25T06:34:18.190Z,97690.88
2022-11-25T06:36:50.647Z,97689.20
2022-11-25T06:39:21.433Z,97692.48
2022-11-25T06:41:51.279Z,97690.80
2022-11-25T06:44:22.089Z,97691.00
2022-11-25T06:46:53.326Z,97690.54
2022-11-25T06:49:25.229Z,97695.85
2022-11-25T06:51:55.239Z,97698.14
2022-11-25T06:54:25.782Z,97700.38
2022-11-25T06:56:55.787Z,97702.61
2022-11-25T06:59:26.037Z,97703.65
2022-11-25T07:01:58.721Z,97704.52
2022-11-25T07:04:28.864Z,97708.11
2022-11-25T07:07:01.696Z,97708.63
2022-11-25T07:09:32.048Z,97711.70
2022-11-25T07:12:02.533Z,97712.41
2022-11-25T07:14:32.524Z,97709.23
2022-11-25T07:17:05.099Z,97713.52
2022-11-25T07:19:38.708Z,97717.09
2022-11-25T07:22:08.861Z,97715.57
2022-11-25T07:24:39.289Z,97716.92
2022-11-25T07:27:09.560Z,97714.73
2022-11-25T07:30:19.197Z,97717.98
2022-11-25T07:32:34.657Z,97720.05
2022-11-25T07:35:06.054Z,97721.78
2022-11-25T07:37:37.445Z,97720.25
2022-11-25T07:40:09.851Z,97727.94
2022-11-25T07:42:39.790Z,97729.82
2022-11-25T07:45:13.411Z,97731.89
2022-11-25T07:47:51.179Z,97733.78
2022-11-25T07:50:21.950Z,97738.40
2022-11-25T07:52:51.797Z,97739.95
2022-11-25T07:55:22.190Z,97740.15
2022-11-25T07:57:52.250Z,97740.98
2022-11-25T08:00:23.910Z,97740.13
2022-11-25T08:02:55.224Z,97745.95
2022-11-25T08:05:28.032Z,97750.41
2022-11-25T08:07:58.335Z,97751.79
2022-11-25T08:10:30.513Z,97753.52
2022-11-25T08:13:00.581Z,97758.31
2022-11-25T08:15:32.673Z,97758.99
2022-11-25T08:18:03.711Z,97759.86
2022-11-25T08:20:33.970Z,97760.56
2022-11-25T08:23:05.197Z,97766.38
2022-11-25T08:25:42.965Z,97763.00
2022-11-25T08:28:15.261Z,97760.00
2022-11-25T08:30:45.727Z,97761.25
2022-11-25T08:33:15.979Z,97758.94
2022-11-25T08:35:52.969Z,97764.27
2022-11-25T08:38:25.601Z,97761.42
2022-11-25T08:40:56.420Z,97764.85
2022-11-25T08:43:29.536Z,97764.34
2022-11-25T08:46:00.093Z,97765.73
2022-11-25T08:48:30.089Z,97766.45
2022-11-25T08:51:00.330Z,97766.77
2022-11-25T08:53:30.710Z,97766.60
2022-11-25T08:56:00.888Z,97770.20
2022-11-25T08:58:33.850Z,97771.59
2022-11-25T09:01:05.310Z,97775.73
2022-11-25T09:03:38.363Z,97774.87
2022-11-25T09:06:10.199Z,97778.11
2022-11-25T09:08:42.180Z,97779.66
2022-11-25T09:11:13.003Z,97781.55
2022-11-25T09:13:43.570Z,97783.93
2022-11-25T09:16:14.929Z,97783.77
2022-11-25T09:18:45.410Z,97780.85
2022-11-25T09:21:18.362Z,97784.77
2022-11-25T09:23:51.948Z,97783.23
2022-11-25T09:26:26.288Z,97786.48
2022-11-25T09:28:57.244Z,97785.98
2022-11-25T09:31:27.436Z,97788.36
2022-11-25T09:33:58.910Z,97787.02
2022-11-25T09:36:28.834Z,97792.46
2022-11-25T09:38:58.923Z,97792.30
2022-11-25T09:42:12.467Z,97791.61
2022-11-25T09:45:16.354Z,97795.37
2022-11-25T09:47:57.265Z,97798.56
2022-11-25T09:50:49.219Z,97798.23
2022-11-25T09:53:30.758Z,97796.71
2022-11-25T09:56:05.130Z,97797.38
2022-11-25T09:58:39.584Z,97800.27
2022-11-25T10:01:17.956Z,97801.99
2022-11-25T10:04:01.310Z,97801.31
2022-11-25T10:06:38.672Z,97801.34
2022-11-25T10:09:14.820Z,97800.48
2022-11-25T10:11:54.972Z,97799.81
2022-11-25T10:14:34.712Z,97799.64
2022-11-25T10:17:14.045Z,97798.65
2022-11-25T10:19:57.510Z,97798.48
2022-11-25T10:22:31.250Z,97799.52
2022-11-25T10:25:07.209Z,97796.61
2022-11-25T10:27:45.104Z,97796.29
2022-11-25T10:30:20.160Z,97790.82
2022-11-25T10:32:57.876Z,97790.64
2022-11-25T10:35:37.280Z,97792.52
2022-11-25T10:38:18.753Z,97798.17
2022-11-25T10:40:51.149Z,97795.95
2022-11-25T10:43:25.992Z,97798.00
2022-11-25T10:46:07.595Z,97800.39
2022-11-25T10:48:55.420Z,97803.80
2022-11-25T10:51:38.362Z,97805.52
2022-11-25T10:54:27.648Z,97805.35
2022-11-25T10:57:02.678Z,97802.27
2022-11-25T10:59:36.481Z,97801.75
2022-11-25T11:02:27.627Z,97806.02
2022-11-25T11:05:00.807Z,97811.65
2022-11-25T11:07:34.639Z,97809.27
2022-11-25T11:10:23.161Z,97806.55
2022-11-25T11:12:58.396Z,97807.73
2022-11-25T11:15:30.082Z,97806.03
2022-11-25T11:18:14.227Z,97804.66
2022-11-25T11:20:49.286Z,97806.19
2022-11-25T11:23:22.251Z,97806.54
2022-11-25T11:26:01.841Z,97808.25
2022-11-25T11:28:41.121Z,97804.84
2022-11-25T11:31:19.963Z,97803.98
2022-11-25T11:33:58.559Z,97805.00
2022-11-25T11:36:38.999Z,97803.45
2022-11-25T11:39:25.891Z,97809.25
2022-11-25T11:42:05.334Z,97810.46
2022-11-25T11:44:41.570Z,97811.65
2022-11-25T11:47:23.468Z,97811.14
2022-11-25T11:50:13.350Z,97811.30
2022-11-25T11:52:55.750Z,97811.44
2022-11-25T11:56:05.666Z,97811.77
2022-11-25T11:58:57.349Z,97813.02
2022-11-25T12:01:41.395Z,97816.95
2022-11-25T12:04:19.690Z,97820.36
2022-11-25T12:07:04.071Z,97819.84
2022-11-25T12:09:44.856Z,97820.20
2022-11-25T12:12:19.409Z,97819.52
2022-11-25T12:14:54.649Z,97815.24
2022-11-25T12:17:31.267Z,97820.36
2022-11-25T12:20:08.195Z,97819.86
2022-11-25T12:22:46.487Z,97823.45
2022-11-25T12:25:19.485Z,97827.04
2022-11-25T12:27:54.454Z,97825.34
2022-11-25T12:30:29.358Z,97829.44
2022-11-25T12:33:06.842Z,97830.98
2022-11-25T12:35:46.446Z,97830.29
2022-11-25T12:38:25.404Z,97833.89
2022-11-25T12:41:06.364Z,97832.86
2022-11-25T12:43:43.966Z,97835.94
2022-11-25T12:46:21.093Z,97837.48
2022-11-25T12:48:52.713Z,97834.40
2022-11-25T12:51:46.718Z,97833.54
2022-11-25T12:54:37.467Z,97834.92
2022-11-25T12:57:36.195Z,97834.07
2022-11-25T13:00:40.667Z,97836.64
2022-11-25T13:03:40.725Z,97839.05
2022-11-25T13:06:40.310Z,97840.24
2022-11-25T13:09:25.788Z,97841.44
2022-11-25T13:12:13.666Z,97841.95
2022-11-25T13:15:23.263Z,97847.25
2022-11-25T13:17:59.473Z,97849.80
2022-11-25T13:20:48.780Z,97851.52
2022-11-25T13:23:30.854Z,97851.00
2022-11-25T13:26:37.011Z,97853.90
2022-11-25T13:30:04.615Z,97858.52
2022-11-25T13:32:37.637Z,97856.48
2022-11-25T13:35:34.997Z,97856.14
2022-11-25T13:38:31.987Z,97859.20
2022-11-25T13:41:04.269Z,97856.29
2022-11-25T13:43:36.418Z,97857.66
2022-11-25T13:46:27.357Z,97854.91
2022-11-25T13:48:57.648Z,97855.58
2022-11-25T13:51:29.118Z,97858.64
2022-11-25T13:54:05.651Z,97859.15
2022-11-25T13:56:39.729Z,97863.42
2022-11-25T13:59:36.954Z,97865.98
2022-11-25T14:02:30.907Z,97869.91
2022-11-25T14:05:09.669Z,97872.97
2022-11-25T14:07:51.504Z,97871.38
2022-11-25T14:10:46.331Z,97873.05
2022-11-25T14:13:46.516Z,97875.92
2022-11-25T14:16:38.433Z,97879.64
2022-11-25T14:19:53.113Z,97880.48
2022-11-25T14:22:54.397Z,97885.05
2022-11-25T14:25:30.255Z,97886.04
2022-11-25T14:28:10.417Z,97890.45
2022-11-25T14:30:53.618Z,97885.48
2022-11-25T14:33:28.909Z,97884.95
2022-11-25T14:36:05.777Z,97888.37
2022-11-25T14:38:44.202Z,97886.85
2022-11-25T14:41:20.119Z,97889.38
2022-11-25T14:43:55.607Z,97888.31
2022-11-25T14:46:26.218Z,97888.95
2022-11-25T14:48:57.749Z,97891.48
2022-11-25T14:51:34.627Z,97894.39
2022-11-25T14:54:07.872Z,97890.79
2022-11-25T14:56:39.167Z,97891.62
2022-11-25T14:59:11.088Z,97892.80
2022-11-25T15:01:56.871Z,97888.48
2022-11-25T15:04:27.318Z,97888.56
2022-11-25T15:07:00.608Z,97889.60
2022-11-25T15:09:33.579Z,97891.16
2022-11-25T15:12:06.148Z,97888.95
2022-11-25T15:14:39.297Z,97891.00
2022-11-25T15:17:17.748Z,97888.92
2022-11-25T15:19:48.680Z,97892.67
2022-11-25T15:22:23.913Z,97895.59
2022-11-25T15:24:56.546Z,97895.93
2022-11-25T15:27:29.092Z,97899.70
2022-11-25T15:29:59.432Z,97901.23
2022-11-25T15:32:32.458Z,97900.91
2022-11-25T15:35:02.978Z,97904.86
2022-11-25T15:37:36.357Z,97905.20
2022-11-25T15:40:43.950Z,97910.67
2022-11-25T15:43:25.488Z,97909.31
2022-11-25T15:46:00.490Z,97907.09
2022-11-25T15:48:34.177Z,97907.62
2022-11-25T15:51:06.807Z,97905.09
2022-11-25T15:53:38.916Z,97903.35
2022-11-25T15:56:13.008Z,97902.85
2022-11-25T15:58:46.200Z,97902.16
2022-11-25T16:01:23.471Z,97898.40
2022-11-25T16:03:53.907Z,97901.42
2022-11-25T16:06:28.819Z,97902.63
2022-11-25T16:09:01.450Z,97902.30
2022-11-25T16:11:44.938Z,97896.17
2022-11-25T16:14:27.105Z,97900.98
2022-11-25T16:17:03.069Z,97904.08
2022-11-25T16:19:38.997Z,97904.90
2022-11-25T16:22:14.449Z,97901.31
2022-11-25T16:24:50.187Z,97905.10
2022-11-25T16:27:23.504Z,97907.98
2022-11-25T16:29:56.359Z,97906.13
2022-11-25T16:32:28.505Z,97905.24
2022-11-25T16:35:11.889Z,97905.92
2022-11-25T16:37:47.222Z,97906.59
2022-11-25T16:40:19.362Z,97904.50
2022-11-25T16:42:53.246Z,97905.16
2022-11-25T16:45:27.054Z,97905.33
2022-11-25T16:47:57.408Z,97907.52
2022-11-25T16:50:27.841Z,97910.42
2022-11-25T16:52:57.990Z,97911.61
2022-11-25T16:55:32.228Z,97913.66
2022-11-25T16:58:09.657Z,97916.39
2022-11-25T17:00:39.878Z,97917.40
2022-11-25T17:03:13.972Z,97918.92
2022-11-25T17:05:45.344Z,97920.29
2022-11-25T17:08:18.760Z,97923.52
2022-11-25T17:10:49.654Z,97929.66
2022-11-25T17:13:23.803Z,97927.27
2022-11-25T17:15:54.924Z,97932.70
2022-11-25T17:18:25.664Z,97933.83
2022-11-25T17:20:56.324Z,97932.27
2022-11-25T17:23:26.799Z,97933.95
2022-11-25T17:25:57.038Z,97936.63
2022-11-25T17:28:27.128Z,97935.27
2022-11-25T17:30:57.532Z,97939.04
2022-11-25T17:33:27.368Z,97940.42
2022-11-25T17:35:58.609Z,97939.06
2022-11-25T17:38:28.839Z,97941.30
2022-11-25T17:40:58.998Z,97945.23
2022-11-25T17:43:33.250Z,97949.34
2022-11-25T17:46:05.816Z,97953.42
2022-11-25T17:48:37.948Z,97953.92
2022-11-25T17:51:08.556Z,97954.95
2022-11-25T17:53:39.490Z,97957.66
2022-11-25T17:56:23.570Z,97955.77
2022-11-25T17:58:54.769Z,97958.84
2022-11-25T18:01:25.677Z,97960.40
2022-11-25T18:03:56.308Z,97959.20
2022-11-25T18:06:26.849Z,97964.31
2022-11-25T18:08:57.329Z,97969.95
2022-11-25T18:11:27.528Z,97968.25
2022-11-25T18:13:57.608Z,97967.73
2022-11-25T18:16:29.205Z,97968.43
2022-11-25T18:18:59.280Z,97967.75
2022-11-25T18:21:29.922Z,97965.38
2022-11-25T18:24:00.181Z,97957.52
2022-11-25T18:26:30.527Z,97956.83
2022-11-25T18:29:01.429Z,97955.92
2022-11-25T18:31:36.540Z,97958.48
2022-11-25T18:34:16.049Z,97955.89
2022-11-25T18:36:47.819Z,97961.84
2022-11-25T18:39:18.651Z,97966.41
2022-11-25T18:41:53.708Z,97963.65
2022-11-25T18:44:27.348Z,97969.77
2022-11-25T18:47:02.686Z,97968.40
2022-11-25T18:49:37.499Z,97975.19
2022-11-25T18:52:12.040Z,97977.41
2022-11-25T18:54:43.248Z,97981.98
2022-11-25T18:57:16.060Z,97982.50
2022-11-25T18:59:48.074Z,97982.67
2022-11-25T19:02:26.855Z,97980.62
2022-11-25T19:04:58.277Z,97987.96
2022-11-25T19:07:30.316Z,97989.83
2022-11-25T19:10:03.147Z,97990.84
2022-11-25T19:12:34.407Z,97993.73
2022-11-25T19:15:11.597Z,97996.74
2022-11-25T19:17:46.490Z,97999.80
2022-11-25T19:20:20.562Z,97997.42
2022-11-25T19:22:57.856Z,97996.73
2022-11-25T19:25:31.007Z,97996.58
2022-11-25T19:28:03.256Z,97997.45
2022-11-25T19:30:35.619Z,97996.27
2022-11-25T19:33:16.406Z,98003.79
2022-11-25T19:35:47.527Z,98007.03
2022-11-25T19:38:21.158Z,98006.86
2022-11-25T19:40:49.926Z,98008.08
2022-11-25T19:43:22.339Z,98010.42
2022-11-25T19:45:52.278Z,98008.23
2022-11-25T19:48:24.630Z,98010.80
2022-11-25T19:50:59.300Z,98010.48
2022-11-25T19:53:33.903Z,98015.08
2022-11-25T19:56:06.868Z,98019.52
2022-11-25T19:58:36.747Z,98021.55
2022-11-25T20:01:07.521Z,98019.65
2022-11-25T20:03:38.338Z,98025.24
2022-11-25T20:06:09.157Z,98029.84
2022-11-25T20:08:39.374Z,98030.31
2022-11-25T20:11:12.308Z,98031.99
2022-11-25T20:13:44.206Z,98037.42
2022-11-25T20:16:19.273Z,98039.29
2022-11-25T20:18:50.917Z,98038.90
2022-11-25T20:21:27.788Z,98041.14
2022-11-25T20:23:58.538Z,98038.58
2022-11-25T20:26:32.177Z,98038.93
2022-11-25T20:29:01.188Z,98037.73
2022-11-25T20:31:31.516Z,98043.17
2022-11-25T20:34:01.817Z,98046.27
2022-11-25T20:36:33.757Z,98052.41
2022-11-25T20:39:04.447Z,98052.44
2022-11-25T20:41:34.703Z,98053.30
2022-11-25T20:44:05.038Z,98055.13
2022-11-25T20:46:35.577Z,98054.08
2022-11-25T20:49:21.685Z,98051.33
2022-11-25T20:51:51.848Z,98053.32
2022-11-25T20:54:23.687Z,98056.02
2022-11-25T20:56:56.185Z,98058.40
2022-11-25T20:59:28.097Z,98060.61
2022-11-25T21:01:58.273Z,98063.98
2022-11-25T21:04:28.458Z,98072.02
2022-11-25T21:06:58.386Z,98073.89
2022-11-25T21:09:35.777Z,98076.45
2022-11-25T21:12:07.257Z,98075.61
2022-11-25T21:14:37.382Z,98072.70
2022-11-25T21:17:07.907Z,98071.33
2022-11-25T21:19:37.941Z,98074.37
2022-11-25T21:22:08.079Z,98072.45
2022-11-25T21:24:40.727Z,98075.00
2022-11-25T21:27:15.525Z,98077.58
2022-11-25T21:29:46.700Z,98075.04
2022-11-25T21:32:22.298Z,98078.13
2022-11-25T21:34:52.854Z,98076.95
2022-11-25T21:37:29.387Z,98077.33
2022-11-25T21:39:59.747Z,98077.54
2022-11-25T21:42:31.757Z,98077.25
2022-11-25T21:45:02.061Z,98081.38
2022-11-25T21:47:31.926Z,98082.29
2022-11-25T21:50:02.478Z,98083.17
2022-11-25T21:52:32.205Z,98081.68
2022-11-25T21:55:02.108Z,98079.85
2022-11-25T21:57:32.547Z,98077.51
2022-11-25T22:00:02.481Z,98080.12
2022-11-25T22:02:35.241Z,98082.69
2022-11-25T22:05:16.270Z,98085.94
2022-11-25T22:07:46.385Z,98086.98
2022-11-25T22:10:16.843Z,98089.38
2022-11-25T22:12:47.948Z,98093.64
2022-11-25T22:15:21.827Z,98098.95
2022-11-25T22:17:56.777Z,98098.45
2022-11-25T22:20:29.881Z,98102.55
2022-11-25T22:23:00.317Z,98106.83
2022-11-25T22:25:33.117Z,98107.69
2022-11-25T22:28:04.318Z,98107.70
2022-11-25T22:30:34.448Z,98110.59
2022-11-25T22:33:05.087Z,98105.15
2022-11-25T22:35:35.381Z,98109.59
2022-11-25T22:38:13.228Z,98112.46
2022-11-25T22:40:44.748Z,98115.32
2022-11-25T22:43:19.560Z,98116.52
2022-11-25T22:45:50.115Z,98122.71
2022-11-25T22:48:25.847Z,98122.05
2022-11-25T22:50:55.859Z,98123.45
2022-11-25T22:53:25.890Z,98120.77
2022-11-25T22:55:58.272Z,98124.55
2022-11-25T22:58:28.847Z,98122.86
2022-11-25T23:00:59.152Z,98125.94
2022-11-25T23:03:30.751Z,98125.27
2022-11-25T23:06:01.420Z,98126.46
2022-11-25T23:08:34.247Z,98125.77
2022-11-25T23:11:04.997Z,98125.10
2022-11-25T23:13:37.625Z,98124.08
2022-11-25T23:16:10.802Z,98127.49
2022-11-25T23:18:43.060Z,98127.16
2022-11-25T23:21:18.718Z,98128.16
2022-11-25T23:23:49.019Z,98121.77
2022-11-25T23:29:07.748Z,98120.91
2022-11-25T23:31:38.825Z,98125.02
2022-11-25T23:34:11.917Z,98123.48
2022-11-25T23:36:45.573Z,98124.70
2022-11-25T23:39:22.649Z,98124.39
2022-11-25T23:41:53.139Z,98126.27
2022-11-25T23:44:25.439Z,98124.06
2022-11-25T23:46:58.017Z,98126.29
2022-11-25T23:49:32.408Z,98126.09
2022-11-25T23:52:07.857Z,98124.73
2022-11-25T23:54:41.516Z,98125.93
2022-11-25T23:57:15.495Z,98125.42
2022-11-25T23:59:46.859Z,98126.28
